Time;durP1;ratioP1;P1;durP2;ratioP2;P2;SDS_P1;SDS_P2;PMS_P1;PMS_P2;Temp;Humidity;BMP_temperature;BMP_pressure;BME280_temperature;BME280_humidity;BME280_pressure;Samples;Min_cycle;Max_cycle;Signal;HPM_P1;HPM_P2
2022/01/05 00:02:03;;;;;;;2.98;2.52;;;;;;;7.92;86.78;98329.63;2822267;82;21011;-70
2022/01/05 00:06:04;;;;;;;5.05;2.30;;;;;;;7.97;86.67;98331.30;2814714;82;21071;-71
2022/01/05 00:10:07;;;;;;;4.87;2.77;;;;;;;7.99;86.33;98337.27;2853561;82;21011;-70
2022/01/05 00:14:08;;;;;;;2.67;2.47;;;;;;;8.03;86.30;98333.31;2856380;83;21007;-70
2022/01/05 00:18:10;;;;;;;3.17;2.20;;;;;;;8.08;86.50;98335.49;2851318;82;20979;-70
2022/01/05 00:22:13;;;;;;;2.67;2.37;;;;;;;8.10;86.53;98342.30;2820872;83;21027;-70
2022/01/05 00:26:14;;;;;;;6.72;3.50;;;;;;;8.11;86.23;98340.47;2807792;85;21058;-70
2022/01/05 00:30:16;;;;;;;4.55;2.80;;;;;;;8.10;86.19;98344.11;2817997;82;21002;-70
2022/01/05 00:34:17;;;;;;;6.50;3.10;;;;;;;8.13;86.42;98341.14;2837131;82;21031;-71
2022/01/05 00:38:19;;;;;;;6.67;3.25;;;;;;;8.15;86.46;98339.16;2813278;82;21043;-70
2022/01/05 00:42:21;;;;;;;4.28;3.20;;;;;;;8.19;86.50;98334.38;2855139;83;21071;-70
2022/01/05 00:46:22;;;;;;;5.80;3.15;;;;;;;8.23;86.46;98333.08;2867277;83;21017;-70
2022/01/05 00:50:24;;;;;;;11.57;4.58;;;;;;;8.30;86.34;98336.77;2867190;83;21014;-70
2022/01/05 00:54:26;;;;;;;4.40;3.50;;;;;;;8.26;86.44;98332.78;2866313;83;20984;-70
2022/01/05 00:58:28;;;;;;;4.78;2.62;;;;;;;8.28;86.47;98341.39;2865942;83;20973;-70
2022/01/05 01:02:30;;;;;;;3.77;2.40;;;;;;;8.33;86.30;98347.04;2867202;83;21012;-70
2022/01/05 01:06:31;;;;;;;3.92;3.05;;;;;;;8.39;86.52;98354.34;2868111;83;21030;-70
2022/01/05 01:10:33;;;;;;;3.87;2.65;;;;;;;8.36;86.17;98354.66;2868011;83;21094;-70
2022/01/05 01:14:34;;;;;;;6.37;2.83;;;;;;;8.41;86.18;98358.98;2868029;83;21026;-70
2022/01/05 01:18:36;;;;;;;3.22;2.35;;;;;;;8.46;86.34;98368.30;2868488;83;21351;-70
2022/01/05 01:22:38;;;;;;;3.22;2.95;;;;;;;8.50;86.13;98376.29;2868544;83;20976;-69
2022/01/05 01:26:40;;;;;;;2.12;1.90;;;;;;;8.50;85.93;98384.23;2868063;83;20983;-69
2022/01/05 01:30:43;;;;;;;2.92;2.02;;;;;;;8.52;86.01;98383.58;2868168;83;21007;-69
2022/01/05 01:34:44;;;;;;;5.40;4.03;;;;;;;8.53;85.74;98378.61;2868045;83;21090;-70
2022/01/05 01:38:46;;;;;;;4.85;2.70;;;;;;;8.53;85.67;98374.64;2871908;82;21110;-69
2022/01/05 01:42:48;;;;;;;4.85;3.85;;;;;;;8.58;85.78;98364.38;2876149;83;21086;-70
2022/01/05 01:46:50;;;;;;;6.12;2.47;;;;;;;8.62;85.81;98360.92;2875530;83;21043;-70
2022/01/05 01:50:52;;;;;;;5.42;3.40;;;;;;;8.67;85.72;98356.81;2873417;83;21012;-69
2022/01/05 01:54:55;;;;;;;5.53;3.47;;;;;;;8.69;85.62;98352.17;2873096;83;21090;-70
2022/01/05 01:58:57;;;;;;;3.25;2.95;;;;;;;8.68;85.04;98348.34;2952687;80;21387;-69
2022/01/05 02:03:01;;;;;;;6.75;3.37;;;;;;;8.64;84.83;98342.53;2911357;82;21015;-69
2022/01/05 02:07:04;;;;;;;4.05;2.87;;;;;;;8.66;85.20;98347.20;2953245;80;20975;-69
2022/01/05 02:11:08;;;;;;;5.95;3.17;;;;;;;8.65;85.30;98357.47;2897993;81;20997;-70
2022/01/05 02:15:11;;;;;;;6.10;3.52;;;;;;;8.64;85.45;98355.78;2921494;81;20962;-70
2022/01/05 02:19:13;;;;;;;7.87;3.42;;;;;;;8.60;85.45;98354.45;2911569;82;21055;-70
2022/01/05 02:23:15;;;;;;;5.62;3.70;;;;;;;8.61;85.27;98346.83;2952763;80;21066;-69
2022/01/05 02:27:18;;;;;;;6.62;2.90;;;;;;;8.61;85.09;98346.83;2910633;82;21005;-69
2022/01/05 02:31:21;;;;;;;3.72;2.58;;;;;;;8.62;85.19;98345.84;2952220;80;21040;-69
2022/01/05 02:35:24;;;;;;;5.87;3.20;;;;;;;8.65;85.19;98326.98;2873312;83;21060;-69
2022/01/05 02:39:26;;;;;;;3.50;2.90;;;;;;;8.73;85.32;98328.80;2864628;82;20998;-69
2022/01/05 02:43:27;;;;;;;5.15;3.80;;;;;;;8.76;84.97;98319.23;2827455;84;21038;-69
2022/01/05 02:47:29;;;;;;;3.95;3.60;;;;;;;8.84;84.87;98332.48;2857730;83;21065;-70
2022/01/05 02:51:31;;;;;;;5.25;3.42;;;;;;;8.80;84.26;98338.27;2827958;84;21054;-69
2022/01/05 02:55:33;;;;;;;3.12;1.82;;;;;;;8.77;84.45;98352.70;2857921;83;21011;-69
2022/01/05 02:59:36;;;;;;;5.35;3.37;;;;;;;8.75;84.50;98355.16;2827414;83;21070;-69
2022/01/05 03:03:37;;;;;;;5.65;2.87;;;;;;;8.77;84.57;98366.43;2857463;83;21014;-69
2022/01/05 03:07:39;;;;;;;4.85;2.90;;;;;;;8.78;84.35;98368.09;2830196;81;21006;-69
2022/01/05 03:11:41;;;;;;;3.05;2.75;;;;;;;8.78;83.95;98357.48;2905205;82;21002;-69
2022/01/05 03:15:43;;;;;;;5.72;3.27;;;;;;;8.75;83.88;98359.98;2873269;83;21050;-69
2022/01/05 03:19:45;;;;;;;3.62;2.62;;;;;;;8.74;83.81;98378.69;2904405;82;21003;-69
2022/01/05 03:23:47;;;;;;;4.80;3.37;;;;;;;8.73;84.00;98367.75;2863260;83;21021;-68
2022/01/05 03:27:50;;;;;;;3.95;3.45;;;;;;;8.75;84.23;98361.79;2846585;83;21009;-69
2022/01/05 03:31:52;;;;;;;5.80;3.33;;;;;;;8.76;83.93;98357.66;2907443;82;20986;-69
2022/01/05 03:35:55;;;;;;;5.72;3.77;;;;;;;8.76;83.91;98372.73;2875569;83;21026;-69
2022/01/05 03:39:57;;;;;;;4.10;3.27;;;;;;;8.75;84.04;98367.94;2935468;80;21047;-69
2022/01/05 03:43:59;;;;;;;6.20;4.75;;;;;;;8.70;83.58;98346.36;2913605;81;21022;-68
2022/01/05 03:48:00;;;;;;;3.70;3.12;;;;;;;8.74;83.89;98333.63;2955137;80;21354;-69
2022/01/05 03:52:04;;;;;;;4.22;3.42;;;;;;;8.74;83.73;98324.34;2913100;81;20995;-68
2022/01/05 03:56:05;;;;;;;4.55;3.87;;;;;;;8.77;83.56;98327.52;2955151;80;21054;-68
2022/01/05 04:00:09;;;;;;;4.87;4.37;;;;;;;8.78;83.27;98344.23;2912911;81;20960;-68
2022/01/05 04:04:10;;;;;;;4.42;3.92;;;;;;;8.84;83.58;98344.89;2904084;82;21066;-70
2022/01/05 04:08:13;;;;;;;4.65;3.30;;;;;;;8.86;82.98;98334.98;2863917;83;20975;-68
2022/01/05 04:12:15;;;;;;;3.20;2.40;;;;;;;8.92;83.03;98335.65;2903910;82;21058;-68
2022/01/05 04:16:17;;;;;;;4.97;3.17;;;;;;;8.97;82.71;98316.61;2864063;83;21051;-68
2022/01/05 04:20:20;;;;;;;4.95;3.62;;;;;;;9.03;82.91;98319.07;2904218;82;20996;-69
2022/01/05 04:24:22;;;;;;;3.40;2.95;;;;;;;9.05;81.90;98323.23;2864330;83;20967;-69
2022/01/05 04:28:25;;;;;;;4.30;3.90;;;;;;;9.06;82.06;98319.59;2904388;82;20959;-69
2022/01/05 04:32:26;;;;;;;7.35;3.95;;;;;;;9.04;81.93;98324.23;2892320;81;21027;-69
2022/01/05 04:36:29;;;;;;;8.00;4.85;;;;;;;8.94;82.51;98317.75;2911741;81;21020;-69
2022/01/05 04:40:31;;;;;;;8.33;4.95;;;;;;;8.89;82.51;98327.18;2874797;81;21036;-69
2022/01/05 04:44:33;;;;;;;6.75;3.67;;;;;;;8.89;82.72;98340.44;2875237;82;21058;-69
2022/01/05 04:48:36;;;;;;;3.60;2.87;;;;;;;8.86;82.58;98341.61;2874994;83;21059;-70
2022/01/05 04:52:38;;;;;;;6.40;4.65;;;;;;;8.74;82.70;98334.44;2874322;83;21078;-69
2022/01/05 04:56:40;;;;;;;15.13;7.87;;;;;;;8.81;82.94;98342.58;2875151;83;20999;-69
2022/01/05 05:00:42;;;;;;;17.20;9.10;;;;;;;8.74;83.02;98333.63;2869486;81;21014;-69
2022/01/05 05:04:46;;;;;;;15.58;10.05;;;;;;;8.67;83.12;98321.51;2866652;83;21054;-72
2022/01/05 05:08:48;;;;;;;13.08;6.75;;;;;;;8.52;83.80;98319.98;2841388;82;21053;-72
2022/01/05 05:12:49;;;;;;;7.95;5.45;;;;;;;8.49;83.64;98333.53;2823431;84;21058;-71
2022/01/05 05:16:51;;;;;;;7.00;5.85;;;;;;;8.50;83.39;98331.23;2849137;83;21019;-71
2022/01/05 05:20:53;;;;;;;6.90;5.53;;;;;;;8.52;83.36;98334.56;2826980;83;21026;-72
2022/01/05 05:24:55;;;;;;;6.62;4.58;;;;;;;8.51;83.31;98336.88;2861658;83;21022;-72
2022/01/05 05:28:56;;;;;;;5.05;3.70;;;;;;;8.54;83.60;98330.73;2790478;84;21642;-72
2022/01/05 05:32:58;;;;;;;5.30;4.20;;;;;;;8.53;83.15;98318.99;2856241;81;21038;-72
2022/01/05 05:37:00;;;;;;;5.08;4.58;;;;;;;8.52;83.40;98311.52;2824010;84;20991;-71
2022/01/05 05:41:02;;;;;;;6.85;5.83;;;;;;;8.51;83.78;98304.56;2848083;81;21007;-71
2022/01/05 05:45:05;;;;;;;5.72;4.80;;;;;;;8.47;84.65;98311.15;2872051;82;21007;-71
2022/01/05 05:49:07;;;;;;;4.90;4.42;;;;;;;8.47;84.66;98309.02;2846167;83;21050;-72
2022/01/05 05:53:10;;;;;;;4.47;4.00;;;;;;;8.44;84.79;98312.30;2854233;81;21070;-71
2022/01/05 05:57:12;;;;;;;6.05;5.45;;;;;;;8.46;85.15;98308.68;2873157;82;21020;-71
2022/01/05 06:01:14;;;;;;;6.60;5.58;;;;;;;8.44;85.19;98326.05;2895043;82;21020;-71
2022/01/05 06:05:15;;;;;;;9.10;6.30;;;;;;;8.40;85.23;98325.53;2894776;82;21070;-71
2022/01/05 06:09:17;;;;;;;13.13;8.08;;;;;;;8.36;85.70;98325.52;2893631;81;20976;-72
2022/01/05 06:13:19;;;;;;;14.75;9.58;;;;;;;8.33;85.84;98319.70;2847381;81;20995;-71
2022/01/05 06:17:20;;;;;;;11.60;8.30;;;;;;;8.25;86.27;98324.47;2883625;82;21019;-71
2022/01/05 06:21:22;;;;;;;10.35;7.75;;;;;;;8.22;86.46;98327.44;2894888;81;21050;-71
2022/01/05 06:25:24;;;;;;;8.78;7.62;;;;;;;8.17;86.99;98323.13;2872127;82;20995;-71
2022/01/05 06:29:26;;;;;;;11.00;7.92;;;;;;;8.17;86.98;98327.09;2845659;83;21038;-70
2022/01/05 06:33:27;;;;;;;10.58;6.97;;;;;;;8.15;87.26;98331.22;2861035;81;21007;-71
2022/01/05 06:37:29;;;;;;;9.58;8.03;;;;;;;8.06;87.52;98329.53;2859997;82;21097;-71
2022/01/05 06:41:32;;;;;;;6.58;5.22;;;;;;;8.00;87.50;98327.02;2885152;81;21003;-71
2022/01/05 06:45:33;;;;;;;9.65;6.92;;;;;;;8.03;87.35;98320.07;2898772;82;21070;-71
2022/01/05 06:49:35;;;;;;;9.30;6.80;;;;;;;7.92;88.15;98315.06;2855554;83;21473;-71
2022/01/05 06:53:38;;;;;;;9.20;6.62;;;;;;;7.93;88.05;98305.62;2896959;80;21002;-71
2022/01/05 06:57:41;;;;;;;10.98;8.28;;;;;;;7.97;87.96;98313.61;2839005;82;21477;-71
2022/01/05 07:01:43;;;;;;;13.85;7.45;;;;;;;8.03;87.62;98319.26;2839700;82;20980;-71
2022/01/05 07:05:45;;;;;;;12.63;5.67;;;;;;;7.98;87.70;98322.38;2863569;82;21062;-71
2022/01/05 07:09:47;;;;;;;4.72;4.22;;;;;;;7.90;88.32;98319.69;2836838;84;21054;-71
2022/01/05 07:13:49;;;;;;;8.45;5.08;;;;;;;7.85;88.17;98319.64;2864225;82;20973;-71
2022/01/05 07:17:53;;;;;;;7.42;5.08;;;;;;;7.78;88.56;98320.45;2870860;82;21072;-71
2022/01/05 07:21:56;;;;;;;10.45;6.87;;;;;;;7.82;88.18;98321.28;2838010;82;21011;-71
2022/01/05 07:25:57;;;;;;;8.13;6.28;;;;;;;7.85;88.25;98326.27;2842975;82;20987;-71
2022/01/05 07:29:59;;;;;;;8.93;6.70;;;;;;;7.84;88.25;98335.19;2869156;82;21027;-71
2022/01/05 07:34:02;;;;;;;5.12;3.30;;;;;;;7.85;88.39;98335.52;2885498;82;21046;-70
2022/01/05 07:38:06;;;;;;;4.42;3.72;;;;;;;7.90;88.32;98340.88;2837631;82;21023;-70
2022/01/05 07:42:09;;;;;;;7.25;5.15;;;;;;;7.93;88.23;98332.61;2824239;83;21018;-72
2022/01/05 07:46:11;;;;;;;8.65;7.30;;;;;;;7.96;88.04;98335.78;2874167;83;20969;-71
2022/01/05 07:50:15;;;;;;;8.60;6.83;;;;;;;8.04;87.72;98335.48;2874070;83;21004;-72
2022/01/05 07:54:18;;;;;;;5.53;4.67;;;;;;;8.06;87.45;98336.99;2873901;83;21001;-71
2022/01/05 07:58:23;;;;;;;7.40;5.47;;;;;;;8.10;87.45;98337.48;2919280;81;21053;-72
2022/01/05 08:02:27;;;;;;;13.95;8.33;;;;;;;8.17;87.23;98339.02;2912002;80;21070;-72
2022/01/05 08:06:30;;;;;;;12.40;8.70;;;;;;;8.22;86.98;98331.41;2954308;80;20995;-72
2022/01/05 08:10:34;;;;;;;11.38;8.55;;;;;;;8.26;86.63;98332.27;2911373;80;21074;-72
2022/01/05 08:14:36;;;;;;;14.25;9.25;;;;;;;8.31;86.34;98334.94;2955913;80;21012;-72
2022/01/05 08:18:38;;;;;;;13.55;8.90;;;;;;;8.33;86.42;98341.74;2914202;81;20988;-72
2022/01/05 08:22:46;;;;;;;19.10;11.20;;;;;;;8.37;86.42;98343.59;2954106;78;20960;-72
2022/01/05 08:26:47;;;;;;;14.93;10.50;;;;;;;8.41;86.10;98336.97;2871263;83;21005;-71
2022/01/05 08:30:51;;;;;;;18.12;11.30;;;;;;;8.44;85.85;98356.02;2871506;83;21005;-72
2022/01/05 08:34:53;;;;;;;16.12;10.05;;;;;;;8.49;85.29;98360.02;2871915;83;20993;-72
2022/01/05 08:38:56;;;;;;;10.08;7.00;;;;;;;8.43;85.27;98358.33;2870930;82;21040;-72
2022/01/05 08:42:58;;;;;;;10.18;7.08;;;;;;;8.37;84.60;98351.02;2868898;81;21044;-72
2022/01/05 08:47:00;;;;;;;6.95;4.35;;;;;;;8.47;84.74;98358.03;2923322;80;20985;-72
2022/01/05 08:51:03;;;;;;;14.50;6.83;;;;;;;8.47;84.83;98363.33;2949819;80;21034;-72
2022/01/05 08:55:06;;;;;;;3.87;3.58;;;;;;;8.43;84.13;98375.55;2910322;80;21063;-72
2022/01/05 08:59:08;;;;;;;3.05;2.40;;;;;;;8.38;84.05;98368.58;2953259;80;20956;-71
2022/01/05 09:03:13;;;;;;;1.00;0.93;;;;;;;8.40;84.41;98368.44;2872980;81;20973;-72
2022/01/05 09:07:15;;;;;;;0.85;0.62;;;;;;;8.41;84.37;98367.45;2914168;81;21071;-72
2022/01/05 09:11:16;;;;;;;1.47;0.88;;;;;;;8.45;84.93;98382.03;2953792;80;21034;-72
2022/01/05 09:15:18;;;;;;;1.27;0.88;;;;;;;8.46;84.99;98385.52;2912516;80;21093;-72
2022/01/05 09:19:19;;;;;;;1.98;1.45;;;;;;;8.43;85.23;98396.75;2946945;79;21019;-72
2022/01/05 09:23:21;;;;;;;0.53;0.53;;;;;;;8.10;85.65;98399.24;2919778;80;20947;-72
2022/01/05 09:27:22;;;;;;;1.65;1.22;;;;;;;7.70;84.23;98437.67;2874519;83;20998;-73
2022/01/05 09:31:24;;;;;;;0.98;0.57;;;;;;;7.31;86.37;98445.92;2947493;80;20991;-75
2022/01/05 09:35:26;;;;;;;1.10;0.78;;;;;;;6.80;87.18;98459.09;2913673;81;20991;-80
2022/01/05 09:43:55;;;;;;;0.95;0.90;;;;;;;6.03;92.31;98493.50;2913179;81;20976;-82
2022/01/05 09:48:10;;;;;;;2.75;1.22;;;;;;;5.53;94.44;98519.50;2954774;80;21011;-82
2022/01/05 09:52:13;;;;;;;1.87;0.67;;;;;;;5.20;96.00;98542.60;2908103;81;21057;-82
2022/01/05 09:56:15;;;;;;;0.78;0.50;;;;;;;5.04;93.36;98537.37;2922461;81;21062;-81
2022/01/05 10:00:18;;;;;;;0.80;0.68;;;;;;;4.83;93.84;98546.17;2954017;80;20997;-82
2022/01/05 10:04:20;;;;;;;0.55;0.50;;;;;;;4.60;94.59;98557.34;2911990;80;21015;-82
2022/01/05 10:08:21;;;;;;;6.10;3.55;;;;;;;4.51;95.40;98555.47;2952857;79;21011;-82
2022/01/05 10:12:22;;;;;;;5.08;1.32;;;;;;;4.53;95.72;98554.89;2912686;80;21018;-82
2022/01/05 10:16:24;;;;;;;4.10;1.72;;;;;;;4.49;96.73;98570.56;2952271;80;20988;-83
2022/01/05 10:20:26;;;;;;;1.98;1.70;;;;;;;4.57;96.64;98576.86;2920515;81;20989;-82
2022/01/05 10:24:43;;;;;;;5.67;2.90;;;;;;;4.64;96.75;98591.67;2867871;83;21002;-84
2022/01/05 10:28:46;;;;;;;6.53;1.80;;;;;;;4.64;96.20;98570.59;2922829;80;21014;-83
2022/01/05 10:32:51;;;;;;;14.75;5.33;;;;;;;4.63;96.86;98599.72;2909987;81;20975;-83
2022/01/05 10:37:00;;;;;;;3.62;2.15;;;;;;;4.62;97.45;98600.66;2949501;80;21051;-83
2022/01/05 10:41:18;;;;;;;2.40;1.98;;;;;;;4.74;97.35;98571.97;2833286;82;21084;-83
2022/01/05 10:45:37;;;;;;;3.37;3.08;;;;;;;4.64;95.80;98579.81;2869030;83;21504;-82
2022/01/05 10:49:41;;;;;;;6.65;2.37;;;;;;;4.67;96.19;98588.77;2903821;82;30545;-80
2022/01/05 10:53:44;;;;;;;4.53;3.50;;;;;;;4.53;94.26;98604.92;2874436;83;21022;-80
2022/01/05 10:58:07;;;;;;;3.17;2.00;;;;;;;4.47;95.15;98614.63;2904840;82;21027;-81
2022/01/05 11:02:27;;;;;;;2.58;1.70;;;;;;;4.31;95.26;98607.18;2896021;80;21026;-81
2022/01/05 11:06:29;;;;;;;3.35;2.77;;;;;;;4.46;96.46;98592.75;2873029;83;21378;-80
2022/01/05 11:10:30;;;;;;;6.70;3.27;;;;;;;4.36;95.50;98589.20;2906094;82;20983;-81
2022/01/05 11:14:34;;;;;;;14.70;4.15;;;;;;;4.49;96.83;98593.80;2907385;81;20994;-80
2022/01/05 11:18:36;;;;;;;6.33;2.42;;;;;;;4.52;96.56;98589.59;2875852;83;21058;-79
2022/01/05 11:22:37;;;;;;;3.30;2.58;;;;;;;4.50;96.06;98627.53;2906633;82;20983;-78
2022/01/05 11:26:39;;;;;;;6.08;2.10;;;;;;;4.40;96.31;98625.68;2874700;81;20988;-77
2022/01/05 11:30:43;;;;;;;5.08;2.55;;;;;;;4.44;96.48;98649.97;2905104;82;21093;-77
2022/01/05 11:34:45;;;;;;;2.65;1.62;;;;;;;4.40;95.11;98657.73;2874303;81;21394;-77
2022/01/05 11:38:47;;;;;;;2.90;1.72;;;;;;;4.37;94.37;98661.95;2904462;80;21027;-76
2022/01/05 11:42:51;;;;;;;23.02;3.72;;;;;;;4.35;93.59;98663.41;2885793;81;21143;-77
2022/01/05 11:46:53;;;;;;;3.45;2.47;;;;;;;4.32;93.25;98668.08;2930005;80;21044;-78
2022/01/05 11:50:58;;;;;;;2.70;1.92;;;;;;;4.35;93.20;98650.24;2954328;80;20994;-78
2022/01/05 11:55:06;;;;;;;5.67;2.87;;;;;;;4.27;92.16;98665.81;2945103;80;20997;-76
2022/01/05 11:59:33;;;;;;;4.30;2.47;;;;;;;4.42;92.93;98674.25;2868917;81;21017;-75
2022/01/05 12:03:57;;;;;;;4.22;2.30;;;;;;;4.51;93.18;98664.75;2927685;80;21003;-75
2022/01/05 12:07:58;;;;;;;4.30;2.35;;;;;;;4.47;91.36;98647.55;2923507;81;21691;-74
2022/01/05 12:12:23;;;;;;;3.22;2.22;;;;;;;4.51;91.73;98652.44;2940084;80;21039;-74
2022/01/05 12:16:26;;;;;;;3.92;2.72;;;;;;;4.61;92.06;98657.77;2921097;80;20935;-73
2022/01/05 12:20:35;;;;;;;7.50;3.02;;;;;;;4.71;90.26;98665.75;2929048;80;21039;-74
2022/01/05 12:25:00;;;;;;;2.72;1.98;;;;;;;4.80;90.42;98669.41;2937161;80;21049;-73
2022/01/05 12:29:01;;;;;;;2.20;1.40;;;;;;;4.85;90.32;98663.27;2929391;80;20975;-72
2022/01/05 12:33:11;;;;;;;1.37;1.07;;;;;;;4.83;88.47;98648.07;2936890;80;20997;-73
2022/01/05 12:37:47;;;;;;;5.28;2.80;;;;;;;4.88;88.53;98642.42;2927267;80;20951;-72
2022/01/05 12:41:49;;;;;;;4.58;3.00;;;;;;;4.99;88.50;98630.00;2922515;80;21059;-72
2022/01/05 12:46:05;;;;;;;1.92;1.77;;;;;;;4.99;87.26;98643.64;2964690;80;21044;-72
2022/01/05 12:50:20;;;;;;;3.47;2.25;;;;;;;5.04;86.92;98645.42;2965907;80;21016;-72
2022/01/05 12:54:28;;;;;;;3.12;2.72;;;;;;;4.98;86.06;98633.60;2966322;80;20973;-72
2022/01/05 12:58:34;;;;;;;5.85;2.17;;;;;;;5.06;86.57;98632.95;2882472;80;21035;-72
2022/01/05 13:02:39;;;;;;;6.20;2.53;;;;;;;5.11;86.90;98632.53;2924602;80;20946;-72
2022/01/05 13:06:43;;;;;;;5.42;1.92;;;;;;;5.04;85.83;98638.84;2964405;80;21022;-72
2022/01/05 13:10:44;;;;;;;3.70;2.00;;;;;;;4.99;85.70;98652.87;2962726;80;20995;-72
2022/01/05 13:14:53;;;;;;;7.37;3.08;;;;;;;4.94;85.53;98653.28;2963307;80;21017;-71
2022/01/05 13:18:55;;;;;;;6.28;2.15;;;;;;;4.89;86.57;98648.86;2960256;80;20980;-71
2022/01/05 13:22:59;;;;;;;9.23;2.05;;;;;;;4.89;86.28;98657.27;2964130;80;21039;-71
2022/01/05 13:27:04;;;;;;;6.72;2.85;;;;;;;4.91;85.53;98636.89;2964645;80;21003;-71
2022/01/05 13:31:10;;;;;;;6.85;2.70;;;;;;;4.94;85.61;98653.28;2964424;80;20979;-72
2022/01/05 13:35:15;;;;;;;4.60;2.15;;;;;;;4.98;85.09;98670.96;2962937;80;20971;-73
2022/01/05 13:39:34;;;;;;;6.62;3.17;;;;;;;5.00;84.44;98675.16;2962673;80;21043;-72
2022/01/05 13:43:36;;;;;;;6.87;2.72;;;;;;;4.94;84.57;98669.09;2950447;80;21063;-73
2022/01/05 13:47:39;;;;;;;9.35;3.72;;;;;;;4.90;84.60;98675.56;2948629;80;21023;-73
2022/01/05 13:51:40;;;;;;;5.95;3.72;;;;;;;4.89;85.45;98686.25;2948601;80;21591;-73
2022/01/05 13:56:05;;;;;;;3.95;2.27;;;;;;;4.79;85.04;98687.00;2947632;80;20972;-72
2022/01/05 14:00:11;;;;;;;7.10;2.65;;;;;;;4.69;84.04;98688.25;2949087;80;21059;-72
2022/01/05 14:04:13;;;;;;;4.53;2.13;;;;;;;4.69;84.29;98701.42;2922570;80;21039;-73
2022/01/05 14:08:15;;;;;;;16.10;2.80;;;;;;;4.76;84.68;98687.76;2948652;80;21007;-72
2022/01/05 14:12:33;;;;;;;6.60;3.35;;;;;;;4.70;83.49;98687.28;2948683;80;21007;-72
2022/01/05 14:16:41;;;;;;;5.33;3.47;;;;;;;4.66;83.02;98708.27;2948754;80;21042;-72
2022/01/05 14:20:49;;;;;;;16.77;3.72;;;;;;;4.62;82.67;98698.09;2950062;80;21043;-69
2022/01/05 14:24:52;;;;;;;5.50;2.67;;;;;;;4.69;81.90;98693.52;2950457;80;21480;-67
2022/01/05 14:28:59;;;;;;;5.03;3.17;;;;;;;4.73;81.98;98702.02;2916022;81;21012;-68
2022/01/05 14:32:58;;;;;;;8.53;2.85;;;;;;;4.77;82.64;98709.19;2981583;80;21027;-68
2022/01/05 14:37:07;;;;;;;4.50;2.70;;;;;;;4.77;82.17;98715.27;2981927;80;20955;-68
2022/01/05 14:41:12;;;;;;;5.37;3.47;;;;;;;4.75;80.18;98718.52;2975530;79;21027;-69
2022/01/05 14:45:17;;;;;;;4.42;2.58;;;;;;;4.65;78.52;98735.56;2950916;80;20991;-70
2022/01/05 14:49:21;;;;;;;7.25;3.05;;;;;;;4.61;79.03;98734.16;2951500;80;21019;-71
2022/01/05 14:53:23;;;;;;;7.12;2.98;;;;;;;4.45;78.91;98746.42;2903864;80;21036;-71
2022/01/05 14:57:25;;;;;;;7.80;3.30;;;;;;;4.29;78.48;98745.50;2873111;82;20995;-71
2022/01/05 15:01:26;;;;;;;6.83;3.30;;;;;;;4.20;78.87;98758.91;2873264;82;21018;-72
2022/01/05 15:05:30;;;;;;;8.95;3.65;;;;;;;4.12;78.51;98746.86;2872988;82;21086;-72
2022/01/05 15:09:32;;;;;;;6.58;3.35;;;;;;;4.02;78.43;98765.64;2871825;82;21015;-72
2022/01/05 15:13:33;;;;;;;5.33;3.45;;;;;;;3.93;78.69;98772.00;2871843;82;21050;-72
2022/01/05 15:17:35;;;;;;;5.25;3.15;;;;;;;3.90;79.07;98766.98;2872612;82;21023;-72
2022/01/05 15:21:37;;;;;;;6.45;3.80;;;;;;;3.85;78.94;98766.02;2873206;82;20971;-72
2022/01/05 15:25:38;;;;;;;4.87;2.27;;;;;;;3.82;78.44;98770.20;2872596;82;21082;-71
2022/01/05 15:29:40;;;;;;;3.85;2.77;;;;;;;3.76;76.78;98773.33;2872936;82;21061;-71
2022/01/05 15:33:41;;;;;;;7.55;3.02;;;;;;;3.74;76.55;98767.35;2872884;82;21607;-71
2022/01/05 15:37:44;;;;;;;13.18;4.17;;;;;;;3.69;76.80;98778.69;2872218;82;21015;-71
2022/01/05 15:41:48;;;;;;;8.40;3.58;;;;;;;3.61;77.05;98775.83;2870187;82;21090;-70
2022/01/05 15:45:50;;;;;;;8.23;3.50;;;;;;;3.64;77.14;98788.73;2864099;83;21622;-70
2022/01/05 15:49:52;;;;;;;8.90;4.45;;;;;;;3.60;77.53;98792.55;2864300;83;21031;-71
2022/01/05 15:53:53;;;;;;;6.53;3.85;;;;;;;3.56;77.88;98798.52;2842004;83;21068;-72
2022/01/05 16:01:16;;;;;;;3.75;3.33;;;;;;;3.52;77.72;98797.09;2812737;84;21409;-70
2022/01/05 16:02:08;;;;;;;5.33;3.58;;;;;;;3.53;77.81;98789.06;2834918;83;21372;-72
2022/01/05 16:06:11;;;;;;;7.58;4.15;;;;;;;3.54;77.42;98796.03;2863791;83;21038;-70
2022/01/05 16:10:13;;;;;;;3.72;2.87;;;;;;;3.48;76.85;98796.47;2867996;83;21011;-72
2022/01/05 16:14:16;;;;;;;4.95;2.92;;;;;;;3.45;76.81;98778.80;2868732;83;21007;-72
2022/01/05 16:18:17;;;;;;;5.67;3.17;;;;;;;3.43;76.19;98781.05;2868685;83;21066;-71
2022/01/05 16:22:20;;;;;;;4.50;2.40;;;;;;;3.45;76.40;98776.99;2868639;83;20987;-72
2022/01/05 16:26:22;;;;;;;12.55;3.70;;;;;;;3.41;76.21;98772.44;2868454;81;21043;-72
2022/01/05 16:30:23;;;;;;;7.78;3.75;;;;;;;3.47;75.90;98764.56;2868417;81;20999;-72
2022/01/05 16:34:25;;;;;;;8.20;2.37;;;;;;;3.47;74.56;98773.77;2868744;83;20991;-71
2022/01/05 16:38:27;;;;;;;2.30;1.77;;;;;;;3.46;74.49;98769.47;2868563;81;21027;-71
2022/01/05 16:42:28;;;;;;;8.53;3.45;;;;;;;3.50;74.34;98786.67;2868711;81;21114;-71
2022/01/05 16:46:31;;;;;;;4.22;2.20;;;;;;;3.54;74.45;98788.60;2867936;83;21039;-72
2022/01/05 16:50:33;;;;;;;4.00;2.52;;;;;;;3.54;74.36;98784.66;2868665;83;21042;-72
2022/01/05 16:54:39;;;;;;;3.47;1.55;;;;;;;3.59;74.74;98788.25;2868455;83;21046;-72
2022/01/05 17:02:53;;;;;;;6.55;3.37;;;;;;;3.56;74.44;98792.80;2868520;83;21042;-72
2022/01/05 17:06:55;;;;;;;4.33;2.60;;;;;;;3.73;74.78;98789.81;2868424;83;21542;-72
2022/01/05 17:10:57;;;;;;;6.28;2.30;;;;;;;3.91;74.95;98798.05;2868542;83;21042;-72
2022/01/05 17:14:58;;;;;;;2.80;2.60;;;;;;;3.98;74.53;98781.67;2868793;83;21043;-72
2022/01/05 17:19:00;;;;;;;3.90;1.60;;;;;;;4.00;73.80;98785.51;2868939;83;21019;-73
2022/01/05 17:23:01;;;;;;;5.47;1.95;;;;;;;4.05;74.11;98777.26;2868670;83;21007;-70
2022/01/05 17:27:03;;;;;;;5.58;2.10;;;;;;;4.03;74.77;98784.41;2868936;83;21031;-72
2022/01/05 17:31:07;;;;;;;2.90;1.42;;;;;;;3.98;74.53;98798.77;2863116;83;21085;-71
2022/01/05 17:35:09;;;;;;;7.12;1.77;;;;;;;3.94;74.99;98796.03;2864932;83;21033;-71
2022/01/05 17:39:11;;;;;;;2.45;1.65;;;;;;;3.89;75.06;98787.67;2863007;83;21012;-71
2022/01/05 17:43:13;;;;;;;1.92;1.77;;;;;;;3.90;75.23;98789.80;2874350;82;21078;-71
2022/01/05 17:47:14;;;;;;;3.20;1.20;;;;;;;3.94;75.06;98778.11;2885261;82;20998;-71
2022/01/05 17:51:19;;;;;;;6.15;3.15;;;;;;;4.03;75.25;98794.94;2885522;82;21061;-70
2022/01/05 17:55:19;;;;;;;1.80;1.70;;;;;;;4.11;75.44;98789.42;2960597;80;20983;-70
2022/01/05 17:59:21;;;;;;;2.00;1.75;;;;;;;4.18;74.01;98783.70;2960110;80;21026;-70
2022/01/05 18:03:24;;;;;;;2.37;2.20;;;;;;;4.27;74.29;98789.53;2958776;80;20990;-70
2022/01/05 18:07:26;;;;;;;4.67;2.37;;;;;;;4.33;73.37;98794.33;2956067;80;21014;-70
2022/01/05 18:11:28;;;;;;;4.10;2.27;;;;;;;4.45;73.96;98798.23;2961412;80;21002;-70
2022/01/05 18:15:30;;;;;;;2.20;1.50;;;;;;;4.43;74.10;98807.09;2961475;80;21030;-69
2022/01/05 18:19:31;;;;;;;2.35;1.67;;;;;;;4.50;73.43;98807.91;2959299;80;20959;-71
2022/01/05 18:23:33;;;;;;;3.15;1.87;;;;;;;4.63;73.42;98819.14;2960613;80;20991;-70
2022/01/05 18:27:36;;;;;;;6.35;3.12;;;;;;;4.62;72.97;98812.20;2959759;80;20999;-70
2022/01/05 18:31:40;;;;;;;6.47;1.98;;;;;;;4.73;73.64;98825.00;2960888;80;20959;-70
2022/01/05 18:35:41;;;;;;;4.83;2.33;;;;;;;4.73;73.03;98819.73;2961861;80;21058;-70
2022/01/05 18:39:43;;;;;;;1.42;1.32;;;;;;;4.84;73.38;98821.00;2961177;80;20980;-70
2022/01/05 18:43:45;;;;;;;9.53;2.33;;;;;;;4.81;72.78;98836.56;2955012;79;20968;-69
2022/01/05 18:47:47;;;;;;;2.22;2.02;;;;;;;4.89;73.24;98825.41;2875317;81;20950;-71
2022/01/05 18:51:49;;;;;;;3.42;1.90;;;;;;;4.93;73.36;98837.39;2907177;82;21027;-71
2022/01/05 18:55:51;;;;;;;2.62;1.72;;;;;;;4.89;74.38;98842.53;2948321;80;20968;-71
2022/01/05 18:59:53;;;;;;;4.33;2.40;;;;;;;4.91;73.81;98835.33;2908292;81;21019;-70
2022/01/05 19:03:55;;;;;;;4.85;1.65;;;;;;;4.95;73.85;98832.83;2948971;80;21026;-71
2022/01/05 19:07:56;;;;;;;1.60;1.45;;;;;;;5.02;74.55;98842.85;2905136;81;21005;-70
2022/01/05 19:11:59;;;;;;;3.95;1.65;;;;;;;5.00;74.32;98839.02;2916866;81;21518;-71
2022/01/05 19:16:01;;;;;;;7.45;2.40;;;;;;;5.04;74.76;98840.92;2866300;81;20993;-70
2022/01/05 19:20:04;;;;;;;6.90;2.92;;;;;;;5.02;74.76;98836.27;2894307;80;21424;-71
2022/01/05 19:24:06;;;;;;;6.05;2.10;;;;;;;4.96;75.61;98834.50;2909413;81;21031;-71
2022/01/05 19:28:08;;;;;;;7.25;3.72;;;;;;;4.98;76.33;98827.30;2950953;80;21010;-71